RJNH(METAR)
05/08 04:00
METAR RJNH 071900Z 27011KT 9999 NSC 13/12 Q1008 RMK A2978=
戻る
トップページへ戻る
IMOC Co,.Ltd.